Latest Weather Observations for Cloncurry

IDQ60801

Issued at 11:32 pm EST Friday 31 July 2015 (issued every 30 minutes, with the page automatically refreshed every 10 minutes)

About weather observations | Map of weather stations | Latest weather observations for QLD | Other Formats
Station Details ID: 029141 Name: CLONCURRY AIRPORT Lat: -20.67 Lon: 140.50 Height: 186.0 m
Data from the previous 72 hours. | See also: Recent months at Cloncurry
Date/Time
EST
Temp
°C
App
Temp
°C
Dew
Point
Rel
Hum
%
Delta-T
°C
Wind Press
QNH
hPa
Press
MSL
hPa
Rain
since 9 am
mm
Dir
 
Spd
km/h
Gust
km/h
Spd
kts
Gust
kts
31/11:00pm 17.5 13.4 2.3 36 6.9 S 13 13 7 7 1018.3 1017.9 0.0
31/10:30pm 17.4 13.9 1.4 34 7.2 S 9 9 5 5 1018.4 1018.0 0.0
31/10:00pm 18.1 14.7 1.6 33 7.5 S 9 11 5 6 1018.0 1017.6 0.0
31/09:30pm 18.9 15.5 1.9 32 7.8 SSE 9 9 5 5 1017.9 1017.5 0.0
31/09:00pm 20.2 17.3 2.5 31 8.3 SE 7 9 4 5 1017.9 1017.5 0.0
31/08:30pm 20.6 17.2 2.0 29 8.7 SE 9 11 5 6 1017.7 1017.3 0.0
31/08:00pm 22.0 19.0 2.2 27 9.4 SE 7 9 4 5 1017.4 1017.0 0.0
31/07:30pm 23.2 19.4 1.5 24 10.2 SE 11 13 6 7 1017.2 1016.8 0.0
31/07:00pm 24.9 21.2 2.4 23 10.9 SE 11 13 6 7 1016.9 1016.5 0.0
31/06:30pm 26.0 21.9 2.0 21 11.6 SE 13 17 7 9 1016.7 1016.3 0.0
31/06:00pm 27.2 22.2 1.6 19 12.4 ESE 17 22 9 12 1016.6 1016.2 0.0
31/05:30pm 27.7 22.9 2.7 20 12.4 SE 17 22 9 12 1016.6 1016.2 0.0
31/05:00pm 28.1 24.1 3.0 20 12.6 SE 13 22 7 12 1016.5 1016.1 0.0
31/04:30pm 28.3 23.9 2.5 19 12.8 ESE 15 20 8 11 1016.5 1016.1 0.0
31/04:00pm 28.1 23.0 3.0 20 12.6 SSE 19 22 10 12 1016.7 1016.3 0.0
31/03:30pm 28.3 24.4 3.2 20 12.6 SE 13 19 7 10 1016.9 1016.5 0.0
31/03:00pm 28.6 25.1 3.5 20 12.7 SE 11 24 6 13 1017.4 1017.0 0.0
31/02:30pm 27.4 24.0 3.8 22 11.9 E 11 20 6 11 1018.0 1017.6 0.0
31/02:00pm 28.0 24.8 5.0 23 11.9 NE 11 20 6 11 1018.4 1018.0 0.0
31/01:30pm 27.3 24.0 4.4 23 11.7 SE 11 19 6 10 1018.9 1018.5 0.0
31/01:00pm 26.9 23.2 4.6 24 11.4 NNE 13 28 7 15 1019.6 1019.1 0.0
31/12:30pm 26.1 23.2 4.6 25 10.9 NE 9 15 5 8 1020.2 1019.8 0.0
31/12:00pm 25.5 21.8 4.6 26 10.6 NNE 13 19 7 10 1020.6 1020.2 0.0
31/11:30am 24.6 21.4 4.9 28 10.0 NNE 11 17 6 9 1021.1 1020.7 0.0
31/11:00am 23.8 20.5 4.7 29 9.6 NE 11 15 6 8 1021.4 1021.0 0.0
31/10:30am 22.9 19.4 3.4 28 9.5 ENE 11 15 6 8 1021.7 1021.3 0.0
31/10:00am 22.3 18.4 3.4 29 9.1 ENE 13 17 7 9 1021.8 1021.4 0.0
31/09:30am 21.3 17.0 3.0 30 8.7 E 15 19 8 10 1021.8 1021.4 0.0
31/09:00am 20.4 15.6 2.7 31 8.3 ESE 17 20 9 11 1021.5 1021.1 0.0
31/08:30am 17.5 14.4 1.1 33 7.3 S 7 9 4 5 1021.3 1020.9 0.0
31/08:00am 14.6 12.6 0.1 37 6.2 CALM 0 6 0 3 1021.3 1020.9 0.0
31/07:30am 12.8 9.1 -0.1 41 5.4 S 9 11 5 6 1021.0 1020.6 0.0
31/07:00am 12.9 8.8 0.0 41 5.4 S 11 13 6 7 1020.6 1020.2 0.0
31/06:30am 13.0 8.9 -0.3 40 5.5 S 11 13 6 7 1020.2 1019.8 0.0
31/06:00am 13.3 8.8 -0.3 39 5.7 S 13 13 7 7 1019.9 1019.4 0.0
31/05:30am 13.1 9.0 -0.2 40 5.5 S 11 13 6 7 1019.6 1019.1 0.0
31/05:00am 14.0 9.9 -0.1 38 5.9 S 11 13 6 7 1019.6 1019.1 0.0
31/04:30am 14.5 10.4 -0.4 36 6.3 S 11 13 6 7 1019.6 1019.1 0.0
31/04:00am 14.7 10.9 -0.6 35 6.4 SSE 9 11 5 6 1019.7 1019.2 0.0
31/03:30am 15.5 11.8 -0.3 34 6.7 S 9 11 5 6 1019.7 1019.2 0.0
31/03:00am 19.2 14.3 -0.7 26 8.7 SSE 15 19 8 10 1019.6 1019.1 0.0
31/02:30am 19.7 14.4 -0.3 26 8.8 SE 17 19 9 10 1019.5 1019.0 0.0
31/02:00am 19.9 14.7 -0.1 26 8.9 SE 17 20 9 11 1019.7 1019.2 0.0
31/01:30am 20.5 14.9 -0.2 25 9.2 SE 19 28 10 15 1020.0 1019.6 0.0
31/01:00am 20.4 14.7 0.8 27 8.9 SE 20 24 11 13 1020.3 1019.9 0.0
31/12:30am 20.6 15.2 1.5 28 8.8 SE 19 24 10 13 1020.5 1020.1 0.0
31/12:00am 20.8 15.5 1.6 28 8.9 SE 19 22 10 12 1020.6 1020.2 0.0
 
Date/Time
EST
Temp
°C
App
Temp
°C
Dew
Point
Rel
Hum
%
Delta-T
°C
Wind Press
QNH
hPa
Press
MSL
hPa
Rain
since 9 am
mm
Dir
 
Spd
km/h
Gust
km/h
Spd
kts
Gust
kts
30/11:30pm 21.0 16.1 2.3 29 8.8 SE 17 20 9 11 1020.9 1020.5 0.0
30/11:00pm 21.5 17.3 3.7 31 8.6 SE 15 22 8 12 1021.0 1020.6 0.0
30/10:30pm 18.4 14.9 3.5 37 7.0 S 11 15 6 8 1020.9 1020.5 0.0
30/10:00pm 19.4 16.4 4.0 36 7.4 SSE 9 11 5 6 1020.9 1020.5 0.0
30/09:30pm 19.0 16.5 4.0 37 7.2 SE 6 7 3 4 1020.7 1020.3 0.0
30/09:00pm 19.9 17.3 4.0 35 7.6 SE 7 9 4 5 1020.5 1020.1 0.0
30/08:30pm 22.0 19.1 4.6 32 8.6 SE 9 11 5 6 1020.2 1019.8 0.0
30/08:00pm 22.2 19.6 4.3 31 8.8 E 7 9 4 5 1019.9 1019.4 0.0
30/07:30pm 22.7 19.3 4.2 30 9.1 E 11 11 6 6 1019.6 1019.1 0.0
30/07:00pm 23.8 20.4 4.2 28 9.7 ESE 11 13 6 7 1019.4 1018.9 0.0
30/06:30pm 25.4 21.3 4.5 26 10.6 E 15 17 8 9 1019.2 1018.7 0.0
30/06:00pm 26.5 22.9 4.9 25 11.1 ESE 13 17 7 9 1018.8 1018.4 0.0
30/05:30pm 27.2 23.3 5.5 25 11.3 ESE 15 20 8 11 1018.9 1018.5 0.0
30/05:00pm 27.5 24.7 5.1 24 11.6 SSE 9 15 5 8 1018.7 1018.3 0.0
30/04:30pm 27.6 23.3 5.2 24 11.6 S 17 26 9 14 1018.7 1018.3 0.0
30/04:00pm 27.5 24.9 6.3 26 11.2 S 9 19 5 10 1018.7 1018.3 0.0
30/03:30pm 27.4 24.3 5.6 25 11.4 SE 11 19 6 10 1018.9 1018.5 0.0
30/03:00pm 27.3 24.7 6.1 26 11.1 SW 9 17 5 9 1019.5 1019.0 0.0
30/02:30pm 27.2 24.6 6.0 26 11.1 SSE 9 15 5 8 1020.1 1019.7 0.0
30/02:00pm 26.8 24.7 6.8 28 10.6 N 7 13 4 7 1020.5 1020.1 0.0
30/01:30pm 26.1 23.2 6.7 29 10.2 E 11 15 6 8 1020.8 1020.4 0.0
30/01:00pm 25.5 23.0 6.7 30 9.9 NNE 9 17 5 9 1021.4 1021.0 0.0
30/12:30pm 25.8 23.8 6.9 30 10.0 E 7 15 4 8 1021.9 1021.5 0.0
30/12:00pm 24.7 22.1 6.0 30 9.6 ENE 9 17 5 9 1022.4 1022.0 0.0
30/11:30am 24.0 21.3 5.4 30 9.5 ESE 9 19 5 10 1022.7 1022.3 0.0
30/11:00am 23.4 19.4 4.9 30 9.3 ENE 15 20 8 11 1022.9 1022.5 0.0
30/10:30am 22.2 17.4 2.8 28 9.3 ESE 17 20 9 11 1023.2 1022.8 0.0
30/10:00am 21.4 16.6 2.6 29 8.9 ESE 17 24 9 13 1023.3 1022.9 0.0
30/09:30am 20.5 15.3 2.3 30 8.5 SE 19 24 10 13 1023.3 1022.9 0.0
30/09:00am 19.2 13.6 1.2 30 8.1 SE 20 26 11 14 1023.0 1022.6 0.0
30/08:30am 18.2 13.0 0.4 30 7.9 SE 17 20 9 11 1023.0 1022.6 0.0
30/08:00am 17.1 12.7 0.3 32 7.3 SSE 13 20 7 11 1022.6 1022.2 0.0
30/07:30am 16.3 11.5 0.0 33 7.0 SE 15 19 8 10 1022.3 1021.9 0.0
30/07:00am 16.3 11.8 0.0 33 7.0 SE 13 17 7 9 1022.0 1021.6 0.0
30/06:30am 16.6 11.8 -0.1 32 7.2 SE 15 19 8 10 1021.5 1021.1 0.0
30/06:00am 16.9 11.6 -0.3 31 7.4 SE 17 24 9 13 1021.2 1020.8 0.0
30/05:30am 17.2 11.9 -0.5 30 7.6 SSE 17 24 9 13 1021.1 1020.7 0.0
30/05:00am 17.5 12.2 -0.7 29 7.8 SSE 17 24 9 13 1020.9 1020.5 0.0
30/04:30am 17.8 11.8 -1.4 27 8.2 SE 20 26 11 14 1020.9 1020.5 0.0
30/04:00am 18.1 12.1 -1.7 26 8.4 SE 20 28 11 15 1020.9 1020.5 0.0
30/03:30am 18.3 12.4 -2.0 25 8.6 SE 19 28 10 15 1021.1 1020.7 0.0
30/03:00am 18.6 12.4 -2.9 23 8.9 SE 20 32 11 17 1021.2 1020.8 0.0
30/02:30am 18.8 12.8 -2.7 23 9.0 SE 19 26 10 14 1021.5 1021.1 0.0
30/02:00am 19.2 13.0 -3.0 22 9.2 SE 20 28 11 15 1021.8 1021.4 0.0
30/01:30am 19.4 13.2 -2.8 22 9.3 SE 20 28 11 15 1022.2 1021.8 0.0
30/01:00am 19.5 13.3 -3.4 21 9.5 SE 20 26 11 14 1022.4 1022.0 0.0
30/12:30am 20.0 13.7 -3.6 20 9.8 SE 20 26 11 14 1022.5 1022.1 0.0
30/12:00am 20.2 14.1 -4.1 19 10.0 SE 19 24 10 13 1022.5 1022.1 0.0
 
Date/Time
EST
Temp
°C
App
Temp
°C
Dew
Point
Rel
Hum
%
Delta-T
°C
Wind Press
QNH
hPa
Press
MSL
hPa
Rain
since 9 am
mm
Dir
 
Spd
km/h
Gust
km/h
Spd
kts
Gust
kts
29/11:30pm 20.3 14.0 -4.0 19 10.0 SE 20 24 11 13 1022.3 1021.9 0.0
29/11:00pm 19.8 14.5 -3.8 20 9.7 SE 15 19 8 10 1022.5 1022.1 0.0
29/10:30pm 20.4 14.7 -4.0 19 10.1 SE 17 20 9 11 1022.4 1022.0 0.0
29/10:00pm 20.3 15.2 -4.8 18 10.1 SE 13 17 7 9 1022.5 1022.1 0.0
29/09:30pm 20.6 15.1 -5.3 17 10.4 SE 15 19 8 10 1022.6 1022.2 0.0
29/09:00pm 21.0 15.2 -5.0 17 10.5 SE 17 19 9 10 1022.6 1022.2 0.0
29/08:30pm 21.3 15.9 -4.7 17 10.7 SE 15 19 8 10 1022.6 1022.2 0.0
29/08:00pm 21.9 16.5 -4.2 17 10.8 SE 15 20 8 11 1022.4 1022.0 0.0
29/07:30pm 22.7 17.0 -3.6 17 11.2 SE 17 20 9 11 1021.9 1021.5 0.0
29/07:00pm 23.1 18.4 -1.8 19 11.0 SE 13 17 7 9 1021.5 1021.1 0.0
29/06:30pm 24.1 19.1 -0.9 19 11.3 SSE 15 22 8 12 1021.1 1020.7 0.0
29/06:00pm 25.2 19.6 0.0 19 11.7 SSE 19 24 10 13 1020.8 1020.4 0.0
29/05:30pm 25.9 20.4 0.5 19 12.0 SE 19 26 10 14 1020.6 1020.2 0.0
29/05:00pm 26.4 21.5 1.7 20 11.9 SE 17 28 9 15 1020.4 1020.0 0.0
29/04:30pm 26.4 20.9 1.7 20 12.0 SE 20 30 11 16 1020.4 1020.0 0.0
29/04:00pm 26.5 21.0 1.7 20 12.0 SE 20 32 11 17 1020.7 1020.3 0.0
29/03:30pm 26.7 21.4 1.9 20 12.1 SE 19 28 10 15 1021.2 1020.8 0.0
29/03:00pm 26.4 20.5 1.7 20 11.9 ESE 22 33 12 18 1021.4 1021.0 0.0
29/02:30pm 26.3 20.4 -0.7 17 12.5 ESE 20 30 11 16 1021.7 1021.3 0.0
29/02:00pm 25.7 19.7 -1.2 17 12.2 SE 20 28 11 15 1022.1 1021.7 0.0
29/01:30pm 25.2 19.1 -2.4 16 12.3 SE 20 32 11 17 1022.7 1022.3 0.0
29/01:00pm 24.3 17.2 -4.0 15 12.1 SE 24 30 13 16 1023.3 1022.9 0.0
29/12:30pm 23.9 16.9 -3.4 16 11.8 SE 24 35 13 19 1024.3 1023.9 0.0
29/12:00pm 23.3 16.3 -3.9 16 11.5 SE 24 33 13 18 1024.9 1024.5 0.0
29/11:30am 22.1 15.1 -3.3 18 10.8 ESE 24 30 13 16 1025.3 1024.9 0.0
29/11:00am 21.4 14.4 -3.9 18 10.5 ESE 24 35 13 19 1025.5 1025.1 0.0
29/10:30am 20.7 14.1 -3.7 19 10.2 SE 22 28 12 15 1026.0 1025.6 0.0
29/10:00am 19.6 12.6 -3.3 21 9.5 SE 24 35 13 19 1026.0 1025.6 0.0
29/09:30am 18.8 11.4 -3.3 22 9.1 SE 26 32 14 17 1026.0 1025.6 0.0
29/09:00am 17.3 10.6 -4.6 22 8.6 SE 22 30 12 16 1025.9 1025.5 0.0
29/08:30am 16.2 9.4 -4.9 23 8.2 SSE 22 30 12 16 1025.6 1025.2 0.0
29/08:00am 15.2 8.8 -5.2 24 7.7 SSE 20 28 11 15 1025.3 1024.9 0.0
29/07:30am 14.5 8.1 -5.3 25 7.5 SSE 20 28 11 15 1024.6 1024.3 0.0
29/07:00am 14.3 7.9 -5.4 25 7.4 SE 20 28 11 15 1024.2 1023.8 0.0
29/06:30am 14.7 7.9 -5.6 24 7.6 SE 22 28 12 15 1023.9 1023.5 0.0
29/06:00am 15.2 8.3 -5.8 23 7.9 SE 22 32 12 17 1023.8 1023.4 0.0
29/05:30am 15.5 8.6 -6.1 22 8.1 SE 22 32 12 17 1023.8 1023.4 0.0
29/05:00am 15.8 7.8 -5.8 22 8.2 SE 28 37 15 20 1023.8 1023.4 0.0
29/04:30am 16.0 8.3 -6.3 21 8.4 SE 26 35 14 19 1024.0 1023.6 0.0
29/04:00am 16.1 8.8 -6.8 20 8.5 SE 24 33 13 18 1023.9 1023.5 0.0
29/03:30am 16.2 8.1 -6.8 20 8.6 SE 28 37 15 20 1024.2 1023.8 0.0
29/03:00am 16.3 9.0 -6.7 20 8.6 SE 24 30 13 16 1024.2 1023.8 0.0
29/02:30am 16.5 9.1 -7.2 19 8.8 SE 24 32 13 17 1024.1 1023.7 0.0
29/02:00am 17.3 9.5 -7.2 18 9.1 SE 26 35 14 19 1024.4 1024.0 0.0
29/01:30am 17.5 10.1 -7.8 17 9.4 SE 24 37 13 20 1024.4 1024.0 0.0
29/01:00am 18.3 10.9 -7.9 16 9.7 SE 24 35 13 19 1024.6 1024.3 0.0
29/12:30am 18.3 12.2 -7.9 16 9.8 SE 17 20 9 11 1024.6 1024.3 0.0
29/12:00am 18.0 12.4 -5.9 19 9.2 SSE 15 19 8 10 1024.6 1024.3 0.0

Other Formats:

Comma delimited format used in spreadsheet applications
http://www.bom.gov.au/fwo/IDQ60801/IDQ60801.94335.axf

JavaScript Object Notation format (JSON) in row-major order
http://www.bom.gov.au/fwo/IDQ60801/IDQ60801.94335.json